createdAt,value
2018-03-24T00:00:21.612Z,53.08
2018-03-24T00:00:55.498Z,53.40
2018-03-24T00:01:29.437Z,53.28
2018-03-24T00:02:03.449Z,51.80
2018-03-24T00:02:37.308Z,54.47
2018-03-24T00:03:11.421Z,57.13
2018-03-24T00:03:45.296Z,56.22
2018-03-24T00:04:19.572Z,55.20
2018-03-24T00:04:53.432Z,53.83
2018-03-24T00:05:27.294Z,49.67
2018-03-24T00:06:01.183Z,55.08
2018-03-24T00:06:35.074Z,46.67
2018-03-24T00:07:09.000Z,56.00
2018-03-24T00:07:42.892Z,52.72
2018-03-24T00:08:16.784Z,58.75
2018-03-24T00:08:50.677Z,53.05
2018-03-24T00:09:24.545Z,50.97
2018-03-24T00:09:58.409Z,53.28
2018-03-24T00:10:32.261Z,56.17
2018-03-24T00:11:06.275Z,52.10
2018-03-24T00:11:40.134Z,56.37
2018-03-24T00:12:14.013Z,55.97
2018-03-24T00:12:47.882Z,52.75
2018-03-24T00:13:21.753Z,54.60
2018-03-24T00:13:55.748Z,53.50
2018-03-24T00:14:29.685Z,54.95
2018-03-24T00:15:03.546Z,47.70
2018-03-24T00:15:37.551Z,53.20
2018-03-24T00:16:11.416Z,57.22
2018-03-24T00:16:45.318Z,56.42
2018-03-24T00:17:19.186Z,55.67
2018-03-24T00:17:53.067Z,56.15
2018-03-24T00:18:27.120Z,54.00
2018-03-24T00:19:01.117Z,55.95
2018-03-24T00:19:35.724Z,59.53
2018-03-24T00:20:09.585Z,50.70
2018-03-24T00:20:43.508Z,58.65
2018-03-24T00:21:17.368Z,55.60
2018-03-24T00:21:51.505Z,49.90
2018-03-24T00:22:25.362Z,58.17
2018-03-24T00:22:59.245Z,47.17
2018-03-24T00:23:33.103Z,53.13
2018-03-24T00:24:07.026Z,52.90
2018-03-24T00:24:41.258Z,51.50
2018-03-24T00:25:15.118Z,61.55
2018-03-24T00:25:49.178Z,50.83
2018-03-24T00:26:23.046Z,51.75
2018-03-24T00:26:57.072Z,59.75
2018-03-24T00:27:30.949Z,55.00
2018-03-24T00:28:04.824Z,51.37
2018-03-24T00:28:38.737Z,49.97
2018-03-24T00:29:12.628Z,54.40
2018-03-24T00:29:46.670Z,58.70
2018-03-24T00:30:20.535Z,55.55
2018-03-24T00:30:54.396Z,56.05
2018-03-24T00:31:28.256Z,49.90
2018-03-24T00:32:02.147Z,51.80
2018-03-24T00:32:36.140Z,52.20
2018-03-24T00:33:10.016Z,52.70
2018-03-24T00:33:43.904Z,49.90
2018-03-24T00:34:18.019Z,56.47
2018-03-24T00:34:51.881Z,58.67
2018-03-24T00:35:25.747Z,56.10
2018-03-24T00:35:59.823Z,51.58
2018-03-24T00:36:33.697Z,50.85
2018-03-24T00:37:07.556Z,47.97
2018-03-24T00:37:41.609Z,57.38
2018-03-24T00:38:15.470Z,52.25
2018-03-24T00:38:49.498Z,62.55
2018-03-24T00:39:23.414Z,53.10
2018-03-24T00:39:57.368Z,55.30
2018-03-24T00:40:31.216Z,55.22
2018-03-24T00:41:05.265Z,57.08
2018-03-24T00:41:39.140Z,49.58
2018-03-24T00:42:13.179Z,49.58
2018-03-24T00:42:47.050Z,57.47
2018-03-24T00:43:21.079Z,51.05
2018-03-24T00:43:54.938Z,53.97
2018-03-24T00:44:29.057Z,47.05
2018-03-24T00:45:02.901Z,51.97
2018-03-24T00:45:36.832Z,47.28
2018-03-24T00:46:10.698Z,50.58
2018-03-24T00:46:44.568Z,55.28
2018-03-24T00:47:18.545Z,55.60
2018-03-24T00:47:52.411Z,55.85
2018-03-24T00:48:26.433Z,54.45
2018-03-24T00:49:00.300Z,54.25
2018-03-24T00:49:34.338Z,48.10
2018-03-24T00:50:08.188Z,53.63
2018-03-24T00:50:42.063Z,54.05
2018-03-24T00:51:16.110Z,46.28
2018-03-24T00:51:49.969Z,51.45
2018-03-24T00:52:23.902Z,46.53
2018-03-24T00:52:57.792Z,53.10
2018-03-24T00:53:31.654Z,50.08
2018-03-24T00:54:05.893Z,57.10
2018-03-24T00:54:39.787Z,49.97
2018-03-24T00:55:13.642Z,51.03
2018-03-24T00:55:47.510Z,51.30
2018-03-24T00:56:21.480Z,44.22
2018-03-24T00:56:55.340Z,50.55
2018-03-24T00:57:29.220Z,49.45
2018-03-24T00:58:03.110Z,53.58
2018-03-24T00:58:36.984Z,46.67
2018-03-24T00:59:10.953Z,55.22
2018-03-24T00:59:44.948Z,54.03
2018-03-24T01:00:18.807Z,55.67
2018-03-24T01:00:52.684Z,48.67
2018-03-24T01:01:26.732Z,52.90
2018-03-24T01:02:00.595Z,50.12
2018-03-24T01:02:34.462Z,55.15
2018-03-24T01:03:08.325Z,49.10
2018-03-24T01:03:42.250Z,44.60
2018-03-24T01:04:16.151Z,51.00
2018-03-24T01:04:50.022Z,49.67
2018-03-24T01:05:23.895Z,48.78
2018-03-24T01:05:57.774Z,50.70
2018-03-24T01:06:31.644Z,52.33
2018-03-24T01:07:05.901Z,49.45
2018-03-24T01:07:39.765Z,52.67
2018-03-24T01:08:13.630Z,50.70
2018-03-24T01:08:47.598Z,49.85
2018-03-24T01:09:21.465Z,46.10
2018-03-24T01:09:55.821Z,53.55
2018-03-24T01:10:30.093Z,48.63
2018-03-24T01:11:04.000Z,54.55
2018-03-24T01:11:37.865Z,52.25
2018-03-24T01:12:11.735Z,47.65
2018-03-24T01:12:45.615Z,51.40
2018-03-24T01:13:19.478Z,51.60
2018-03-24T01:13:53.351Z,50.85
2018-03-24T01:14:27.354Z,50.28
2018-03-24T01:15:01.235Z,48.70
2018-03-24T01:15:35.083Z,52.42
2018-03-24T01:16:08.937Z,50.35
2018-03-24T01:16:42.844Z,57.50
2018-03-24T01:17:16.721Z,49.45
2018-03-24T01:17:50.726Z,55.67
2018-03-24T01:18:24.594Z,49.45
2018-03-24T01:18:58.722Z,54.30
2018-03-24T01:19:32.721Z,46.22
2018-03-24T01:20:06.617Z,47.95
2018-03-24T01:20:40.607Z,54.72
2018-03-24T01:21:14.615Z,47.08
2018-03-24T01:21:48.514Z,49.80
2018-03-24T01:22:22.393Z,50.92
2018-03-24T01:22:56.257Z,49.65
2018-03-24T01:23:30.119Z,47.60
2018-03-24T01:24:04.086Z,50.83
2018-03-24T01:24:38.078Z,49.10
2018-03-24T01:25:11.951Z,52.92
2018-03-24T01:25:45.817Z,48.10
2018-03-24T01:26:19.672Z,54.63
2018-03-24T01:26:53.545Z,49.08
2018-03-24T01:27:27.434Z,44.85
2018-03-24T01:28:01.297Z,50.78
2018-03-24T01:28:35.166Z,47.40
2018-03-24T01:29:09.249Z,44.33
2018-03-24T01:29:43.122Z,45.90
2018-03-24T01:30:17.001Z,53.33
2018-03-24T01:30:51.070Z,55.92
2018-03-24T01:31:24.935Z,46.95
2018-03-24T01:31:58.803Z,44.83
2018-03-24T01:32:32.826Z,50.20
2018-03-24T01:33:06.821Z,50.42
2018-03-24T01:33:40.695Z,42.58
2018-03-24T01:34:14.814Z,48.13
2018-03-24T01:34:48.698Z,50.28
2018-03-24T01:35:22.624Z,51.80
2018-03-24T01:35:56.481Z,44.42
2018-03-24T01:36:30.338Z,47.85
2018-03-24T01:37:04.321Z,47.95
2018-03-24T01:37:38.321Z,51.30
2018-03-24T01:38:12.203Z,48.67
2018-03-24T01:38:46.083Z,46.97
2018-03-24T01:39:19.958Z,45.30
2018-03-24T01:39:53.827Z,51.67
2018-03-24T01:40:27.768Z,44.17
2018-03-24T01:41:01.625Z,48.85
2018-03-24T01:41:35.560Z,46.83
2018-03-24T01:42:09.417Z,42.80
2018-03-24T01:42:43.276Z,46.10
2018-03-24T01:43:17.347Z,49.47
2018-03-24T01:43:51.345Z,46.33
2018-03-24T01:44:25.221Z,46.20
2018-03-24T01:44:59.077Z,45.22
2018-03-24T01:45:32.955Z,47.15
2018-03-24T01:46:06.819Z,47.30
2018-03-24T01:46:40.667Z,45.47
2018-03-24T01:47:14.614Z,46.37
2018-03-24T01:47:48.487Z,50.90
2018-03-24T01:48:22.504Z,51.30
2018-03-24T01:48:56.396Z,44.47
2018-03-24T01:49:30.261Z,44.72
2018-03-24T01:50:04.125Z,50.10
2018-03-24T01:50:38.110Z,45.92
2018-03-24T01:51:12.000Z,46.13
2018-03-24T01:51:45.918Z,45.72
2018-03-24T01:52:19.792Z,45.67
2018-03-24T01:52:53.668Z,44.15
2018-03-24T01:53:34.208Z,42.30
2018-03-24T01:54:08.216Z,43.75
2018-03-24T01:54:42.071Z,45.17
2018-03-24T01:55:15.924Z,39.28
2018-03-24T01:55:50.006Z,41.80
2018-03-24T01:56:24.014Z,43.40
2018-03-24T01:56:57.907Z,45.65
2018-03-24T01:57:31.778Z,48.50
2018-03-24T01:58:05.643Z,49.50
2018-03-24T01:58:39.512Z,44.15
2018-03-24T01:59:13.373Z,41.20
2018-03-24T01:59:47.360Z,45.47
2018-03-24T02:00:21.373Z,46.42
2018-03-24T02:00:55.287Z,41.20
2018-03-24T02:01:29.145Z,43.58
2018-03-24T02:02:03.050Z,40.38
2018-03-24T02:02:36.909Z,47.03
2018-03-24T02:03:10.769Z,43.50
2018-03-24T02:03:44.639Z,41.60
2018-03-24T02:04:18.506Z,47.17
2018-03-24T02:04:52.449Z,44.85
2018-03-24T02:05:26.322Z,42.53
2018-03-24T02:06:00.184Z,45.22
2018-03-24T02:06:34.064Z,43.13
2018-03-24T02:07:07.923Z,38.28
2018-03-24T02:07:41.779Z,39.65
2018-03-24T02:08:15.643Z,44.28
2018-03-24T02:08:49.606Z,43.45
2018-03-24T02:09:23.468Z,41.42
2018-03-24T02:09:57.324Z,42.20
2018-03-24T02:10:31.212Z,41.15
2018-03-24T02:11:05.104Z,39.08
2018-03-24T02:11:38.969Z,38.40
2018-03-24T02:12:12.885Z,38.50
2018-03-24T02:12:46.787Z,43.53
2018-03-24T02:13:20.648Z,45.38
2018-03-24T02:13:54.508Z,44.95
2018-03-24T02:14:28.551Z,41.03
2018-03-24T02:15:02.417Z,38.60
2018-03-24T02:15:36.557Z,41.45
2018-03-24T02:16:10.542Z,39.65
2018-03-24T02:16:44.399Z,40.95
2018-03-24T02:17:18.275Z,42.83
2018-03-24T02:17:52.228Z,43.63
2018-03-24T02:18:26.078Z,37.40
2018-03-24T02:19:00.028Z,39.40
2018-03-24T02:19:33.878Z,38.53
2018-03-24T02:20:07.745Z,46.00
2018-03-24T02:20:41.806Z,43.30
2018-03-24T02:21:26.462Z,38.75
2018-03-24T02:22:00.577Z,35.42
2018-03-24T02:22:34.464Z,39.75
2018-03-24T02:23:08.453Z,41.37
2018-03-24T02:23:42.418Z,38.25
2018-03-24T02:24:16.365Z,41.33
2018-03-24T02:24:50.778Z,41.90
2018-03-24T02:25:24.664Z,40.67
2018-03-24T02:25:58.880Z,48.13
2018-03-24T02:26:32.745Z,44.60
2018-03-24T02:27:06.624Z,39.40
2018-03-24T02:27:40.493Z,48.33
2018-03-24T02:28:14.530Z,44.88
2018-03-24T02:28:48.381Z,41.35
2018-03-24T02:29:22.241Z,51.20
2018-03-24T02:29:56.247Z,40.40
2018-03-24T02:30:30.114Z,39.08
2018-03-24T02:31:04.110Z,42.17
2018-03-24T02:31:37.980Z,40.15
2018-03-24T02:32:11.908Z,38.90
2018-03-24T02:32:45.789Z,37.80
2018-03-24T02:33:19.653Z,38.45
2018-03-24T02:33:53.520Z,40.10
2018-03-24T02:34:27.374Z,42.35
2018-03-24T02:35:01.265Z,41.50
2018-03-24T02:35:35.166Z,41.17
2018-03-24T02:36:09.087Z,39.50
2018-03-24T02:36:42.984Z,38.17
2018-03-24T02:37:16.852Z,42.25
2018-03-24T02:37:50.726Z,43.90
2018-03-24T02:38:24.652Z,40.00
2018-03-24T02:38:58.528Z,42.95
2018-03-24T02:39:32.537Z,44.05
2018-03-24T02:40:06.393Z,44.00
2018-03-24T02:40:40.238Z,36.75
2018-03-24T02:41:14.107Z,35.83
2018-03-24T02:41:48.030Z,37.92
2018-03-24T02:42:21.895Z,40.53
2018-03-24T02:42:55.929Z,40.63
2018-03-24T02:43:29.802Z,40.03
2018-03-24T02:44:03.657Z,39.28
2018-03-24T02:44:37.592Z,41.25
2018-03-24T02:45:11.485Z,36.75
2018-03-24T02:45:45.363Z,40.65
2018-03-24T02:46:19.270Z,38.80
2018-03-24T02:46:53.174Z,40.03
2018-03-24T02:47:27.041Z,34.13
2018-03-24T02:48:00.914Z,40.30
2018-03-24T02:48:34.809Z,36.78
2018-03-24T02:49:08.656Z,41.92
2018-03-24T02:49:42.751Z,35.42
2018-03-24T02:50:16.612Z,38.00
2018-03-24T02:50:50.485Z,39.90
2018-03-24T02:51:24.440Z,36.92
2018-03-24T02:51:58.467Z,35.15
2018-03-24T02:52:32.326Z,47.65
2018-03-24T02:53:06.225Z,43.40
2018-03-24T02:53:40.101Z,40.83
2018-03-24T02:54:13.957Z,39.13
2018-03-24T02:54:48.025Z,40.75
2018-03-24T02:55:21.899Z,41.15
2018-03-24T02:55:55.912Z,41.03
2018-03-24T02:56:29.784Z,38.13
2018-03-24T02:57:04.026Z,40.60
2018-03-24T02:57:37.904Z,40.08
2018-03-24T02:58:11.778Z,38.80
2018-03-24T02:58:45.703Z,39.97
2018-03-24T02:59:19.591Z,40.42
2018-03-24T02:59:53.441Z,41.42
2018-03-24T03:00:27.322Z,40.78
2018-03-24T03:01:01.195Z,43.47
2018-03-24T03:01:35.057Z,36.50
2018-03-24T03:02:09.074Z,38.35
2018-03-24T03:02:43.170Z,39.28
2018-03-24T03:03:17.183Z,43.00
2018-03-24T03:03:51.054Z,38.33
2018-03-24T03:04:24.915Z,38.92
2018-03-24T03:04:58.781Z,37.53
2018-03-24T03:05:32.747Z,39.30
2018-03-24T03:06:06.615Z,37.85
2018-03-24T03:06:40.512Z,38.80
2018-03-24T03:07:14.388Z,41.37
2018-03-24T03:08:15.387Z,41.78
2018-03-24T03:08:49.485Z,40.15
2018-03-24T03:09:23.362Z,37.22
2018-03-24T03:09:57.361Z,36.42
2018-03-24T03:10:31.229Z,39.13
2018-03-24T03:11:05.256Z,42.08
2018-03-24T03:11:39.118Z,39.65
2018-03-24T03:12:13.118Z,41.95
2018-03-24T03:12:47.034Z,38.17
2018-03-24T03:13:20.893Z,37.03
2018-03-24T03:13:54.838Z,37.58
2018-03-24T03:14:28.723Z,33.53
2018-03-24T03:15:02.611Z,37.10
2018-03-24T03:15:36.610Z,41.60
2018-03-24T03:16:10.630Z,36.97
2018-03-24T03:16:44.507Z,44.47
2018-03-24T03:17:18.409Z,42.75
2018-03-24T03:17:52.318Z,40.00
2018-03-24T03:18:26.313Z,41.58
2018-03-24T03:19:00.188Z,39.38
2018-03-24T03:19:34.189Z,38.47
2018-03-24T03:20:08.198Z,40.00
2018-03-24T03:20:42.283Z,37.58
2018-03-24T03:21:16.280Z,38.38
2018-03-24T03:21:50.741Z,39.45
2018-03-24T03:22:24.608Z,38.13
2018-03-24T03:22:58.616Z,38.95
2018-03-24T03:23:32.479Z,40.80
2018-03-24T03:24:06.700Z,37.15
2018-03-24T03:24:40.575Z,35.75
2018-03-24T03:25:14.434Z,40.50
2018-03-24T03:25:48.311Z,39.08
2018-03-24T03:26:22.277Z,40.97
2018-03-24T03:26:56.148Z,38.13
2018-03-24T03:27:30.384Z,41.08
2018-03-24T03:28:04.340Z,43.55
2018-03-24T03:28:38.157Z,37.03
2018-03-24T03:29:12.041Z,42.40
2018-03-24T03:29:45.945Z,40.97
2018-03-24T03:30:27.394Z,34.45
2018-03-24T03:31:11.177Z,39.85
2018-03-24T03:31:51.068Z,34.55
2018-03-24T03:32:25.806Z,39.70
2018-03-24T03:32:59.714Z,43.28
2018-03-24T03:33:33.610Z,36.28
2018-03-24T03:34:07.469Z,37.10
2018-03-24T03:34:41.473Z,38.95
2018-03-24T03:35:15.343Z,38.85
2018-03-24T03:35:49.270Z,37.88
2018-03-24T03:36:23.124Z,35.30
2018-03-24T03:36:56.998Z,36.95
2018-03-24T03:37:30.873Z,33.28
2018-03-24T03:38:04.724Z,35.40
2018-03-24T03:38:38.875Z,42.70
2018-03-24T03:39:12.738Z,35.42
2018-03-24T03:39:46.737Z,37.65
2018-03-24T03:40:20.630Z,41.67
2018-03-24T03:40:54.491Z,42.10
2018-03-24T03:41:28.350Z,36.17
2018-03-24T03:42:02.529Z,40.80
2018-03-24T03:42:36.385Z,39.13
2018-03-24T03:43:10.255Z,42.80
2018-03-24T03:43:44.238Z,39.05
2018-03-24T03:44:18.098Z,37.15
2018-03-24T03:44:51.962Z,40.33
2018-03-24T03:45:25.828Z,36.90
2018-03-24T03:45:59.700Z,36.38
2018-03-24T03:46:33.795Z,36.17
2018-03-24T03:47:07.690Z,39.75
2018-03-24T03:47:41.552Z,42.53
2018-03-24T03:48:15.581Z,42.85
2018-03-24T03:48:49.780Z,40.33
2018-03-24T03:49:23.654Z,38.15
2018-03-24T03:49:57.584Z,40.25
2018-03-24T03:50:31.457Z,38.90
2018-03-24T03:51:05.328Z,40.83
2018-03-24T03:51:39.242Z,36.05
2018-03-24T03:52:13.126Z,43.22
2018-03-24T03:52:47.009Z,41.53
2018-03-24T03:53:20.887Z,35.95
2018-03-24T03:53:54.771Z,38.63
2018-03-24T03:54:28.636Z,36.45
2018-03-24T03:55:02.507Z,38.88
2018-03-24T03:55:36.524Z,39.55
2018-03-24T03:56:10.393Z,44.83
2018-03-24T03:56:44.266Z,40.38
2018-03-24T03:57:18.137Z,36.75
2018-03-24T03:57:52.012Z,33.78
2018-03-24T03:58:25.900Z,41.85
2018-03-24T03:58:59.994Z,45.97
2018-03-24T03:59:33.861Z,40.55
2018-03-24T04:00:07.723Z,36.30
2018-03-24T04:00:41.591Z,42.80
2018-03-24T04:01:15.450Z,35.60
2018-03-24T04:01:49.374Z,35.60
2018-03-24T04:02:23.364Z,37.03
2018-03-24T04:02:57.266Z,37.20
2018-03-24T04:03:31.157Z,37.47
2018-03-24T04:04:05.034Z,35.95
2018-03-24T04:04:38.933Z,39.45
2018-03-24T04:05:12.802Z,38.45
2018-03-24T04:05:46.651Z,36.60
2018-03-24T04:06:20.506Z,37.22
2018-03-24T04:06:54.439Z,38.60
2018-03-24T04:07:28.321Z,34.10
2018-03-24T04:08:02.327Z,38.40
2018-03-24T04:08:36.186Z,37.67
2018-03-24T04:09:10.241Z,36.92
2018-03-24T04:09:44.117Z,36.90
2018-03-24T04:10:18.113Z,36.60
2018-03-24T04:10:51.966Z,36.13
2018-03-24T04:11:26.026Z,36.58
2018-03-24T04:11:59.900Z,38.45
2018-03-24T04:12:33.758Z,41.47
2018-03-24T04:13:07.618Z,39.33
2018-03-24T04:13:41.480Z,39.92
2018-03-24T04:14:15.362Z,37.72
2018-03-24T04:14:49.435Z,35.42
2018-03-24T04:15:23.587Z,39.50
2018-03-24T04:15:57.632Z,37.45
2018-03-24T04:16:31.461Z,35.00
2018-03-24T04:17:05.319Z,36.83
2018-03-24T04:17:39.293Z,38.42
2018-03-24T04:18:13.168Z,38.33
2018-03-24T04:18:47.029Z,36.78
2018-03-24T04:19:20.900Z,40.72
2018-03-24T04:19:54.837Z,42.03
2018-03-24T04:20:28.861Z,37.38
2018-03-24T04:21:02.945Z,38.30
2018-03-24T04:21:36.833Z,37.80
2018-03-24T04:22:10.704Z,41.15
2018-03-24T04:22:44.623Z,40.20
2018-03-24T04:23:18.522Z,38.33
2018-03-24T04:23:52.396Z,35.92
2018-03-24T04:24:26.312Z,39.38
2018-03-24T04:25:00.298Z,39.03
2018-03-24T04:25:34.212Z,39.88
2018-03-24T04:26:08.074Z,37.97
2018-03-24T04:26:41.939Z,41.63
2018-03-24T04:27:15.884Z,36.33
2018-03-24T04:27:49.759Z,41.92
2018-03-24T04:28:23.756Z,44.38
2018-03-24T04:28:57.617Z,35.72
2018-03-24T04:29:31.642Z,36.50
2018-03-24T04:30:05.638Z,38.45
2018-03-24T04:30:39.496Z,35.85
2018-03-24T04:31:13.381Z,39.78
2018-03-24T04:31:47.248Z,34.10
2018-03-24T04:32:21.125Z,38.15
2018-03-24T04:32:54.990Z,39.40
2018-03-24T04:33:28.863Z,32.45
2018-03-24T04:34:02.725Z,39.08
2018-03-24T04:34:37.139Z,38.58
2018-03-24T04:35:11.004Z,36.72
2018-03-24T04:35:44.882Z,42.10
2018-03-24T04:36:18.734Z,37.13
2018-03-24T04:36:52.597Z,38.35
2018-03-24T04:37:26.459Z,37.08
2018-03-24T04:38:00.322Z,37.55
2018-03-24T04:38:34.198Z,35.80
2018-03-24T04:39:08.062Z,42.40
2018-03-24T04:39:42.013Z,35.72
2018-03-24T04:40:15.889Z,38.00
2018-03-24T04:40:49.752Z,41.05
2018-03-24T04:41:23.646Z,43.20
2018-03-24T04:41:57.590Z,38.50
2018-03-24T04:42:31.447Z,37.30
2018-03-24T04:43:05.702Z,40.17
2018-03-24T04:43:39.772Z,36.13
2018-03-24T04:44:13.641Z,42.75
2018-03-24T04:44:47.516Z,37.80
2018-03-24T04:45:21.483Z,39.60
2018-03-24T04:45:55.467Z,37.22
2018-03-24T04:46:29.463Z,37.45
2018-03-24T04:47:03.337Z,40.20
2018-03-24T04:47:37.199Z,41.80
2018-03-24T04:48:11.348Z,42.75
2018-03-24T04:48:45.241Z,37.75
2018-03-24T04:49:19.245Z,37.55
2018-03-24T04:49:53.129Z,34.63
2018-03-24T04:50:26.996Z,38.33
2018-03-24T04:51:00.865Z,40.55
2018-03-24T04:51:34.826Z,35.50
2018-03-24T04:52:08.696Z,42.08
2018-03-24T04:52:42.722Z,38.88
2018-03-24T04:53:16.585Z,37.72
2018-03-24T04:53:50.513Z,39.72
2018-03-24T04:54:24.333Z,37.63
2018-03-24T04:54:58.209Z,37.55
2018-03-24T04:55:32.190Z,34.63
2018-03-24T04:56:06.207Z,36.05
2018-03-24T04:56:40.076Z,32.72
2018-03-24T04:57:13.941Z,43.55
2018-03-24T04:57:47.800Z,38.38
2018-03-24T04:58:21.661Z,37.45
2018-03-24T04:58:55.671Z,38.67
2018-03-24T04:59:29.536Z,43.28
2018-03-24T05:00:03.414Z,39.38
2018-03-24T05:00:37.273Z,34.45
2018-03-24T05:01:11.135Z,33.97
2018-03-24T05:01:45.036Z,39.03
2018-03-24T05:02:18.928Z,37.55
2018-03-24T05:02:52.797Z,39.25
2018-03-24T05:03:26.668Z,39.60
2018-03-24T05:04:00.753Z,39.55
2018-03-24T05:04:34.822Z,33.45
2018-03-24T05:05:08.705Z,37.50
2018-03-24T05:05:42.573Z,41.88
2018-03-24T05:06:16.433Z,38.72
2018-03-24T05:06:50.298Z,35.38
2018-03-24T05:07:24.164Z,39.35
2018-03-24T05:07:58.022Z,35.17
2018-03-24T05:08:31.985Z,41.50
2018-03-24T05:09:05.853Z,35.00
2018-03-24T05:09:39.934Z,36.65
2018-03-24T05:10:14.306Z,37.13
2018-03-24T05:10:48.172Z,38.55
2018-03-24T05:11:22.071Z,37.33
2018-03-24T05:11:56.076Z,32.92
2018-03-24T05:12:29.970Z,44.75
2018-03-24T05:13:03.951Z,36.35
2018-03-24T05:13:38.841Z,37.20
2018-03-24T05:14:12.780Z,35.90
2018-03-24T05:14:46.636Z,41.80
2018-03-24T05:15:20.787Z,36.38
2018-03-24T05:15:54.675Z,33.67
2018-03-24T05:16:28.525Z,35.00
2018-03-24T05:17:02.566Z,39.85
2018-03-24T05:17:36.465Z,36.60
2018-03-24T05:18:10.487Z,39.03
2018-03-24T05:18:44.342Z,38.15
2018-03-24T05:19:18.373Z,35.78
2018-03-24T05:19:52.257Z,38.70
2018-03-24T05:20:26.286Z,41.37
2018-03-24T05:21:00.241Z,33.95
2018-03-24T05:21:34.105Z,39.10
2018-03-24T05:22:07.970Z,33.17
2018-03-24T05:22:42.131Z,34.70
2018-03-24T05:23:16.036Z,36.42
2018-03-24T05:23:49.924Z,39.25
2018-03-24T05:24:23.818Z,32.00
2018-03-24T05:24:57.820Z,36.25
2018-03-24T05:25:31.712Z,35.60
2018-03-24T05:26:05.577Z,39.22
2018-03-24T05:26:39.435Z,40.17
2018-03-24T05:27:13.304Z,37.38
2018-03-24T05:27:47.170Z,36.17
2018-03-24T05:28:21.038Z,38.80
2018-03-24T05:28:54.914Z,34.85
2018-03-24T05:29:29.283Z,37.10
2018-03-24T05:30:03.145Z,33.05
2018-03-24T05:30:37.019Z,34.70
2018-03-24T05:31:10.888Z,37.03
2018-03-24T05:31:44.747Z,34.17
2018-03-24T05:32:18.626Z,37.10
2018-03-24T05:32:52.477Z,38.25
2018-03-24T05:33:26.338Z,39.60
2018-03-24T05:34:00.345Z,34.67
2018-03-24T05:34:34.345Z,37.38
2018-03-24T05:35:08.212Z,35.33
2018-03-24T05:35:42.131Z,36.35
2018-03-24T05:36:16.125Z,36.17
2018-03-24T05:36:50.177Z,38.08
2018-03-24T05:37:24.126Z,37.20
2018-03-24T05:37:58.001Z,35.08
2018-03-24T05:38:31.868Z,34.70
2018-03-24T05:39:05.988Z,37.17
2018-03-24T05:39:39.808Z,29.55
2018-03-24T05:40:13.670Z,37.28
2018-03-24T05:40:47.574Z,31.77
2018-03-24T05:41:21.445Z,33.88
2018-03-24T05:41:55.306Z,41.10
2018-03-24T05:42:29.185Z,37.17
2018-03-24T05:43:03.079Z,35.85
2018-03-24T05:43:37.193Z,33.17
2018-03-24T05:44:11.058Z,40.58
2018-03-24T05:44:44.921Z,31.00
2018-03-24T05:45:18.788Z,38.65
2018-03-24T05:45:52.731Z,38.13
2018-03-24T05:46:26.597Z,27.48
2018-03-24T05:47:00.667Z,37.92
2018-03-24T05:47:34.525Z,42.47
2018-03-24T05:48:08.686Z,36.08
2018-03-24T05:48:42.585Z,31.90
2018-03-24T05:49:16.544Z,33.50
2018-03-24T05:49:50.416Z,37.92
2018-03-24T05:50:24.293Z,39.65
2018-03-24T05:50:58.170Z,37.92
2018-03-24T05:51:32.033Z,39.85
2018-03-24T05:52:06.027Z,40.60
2018-03-24T05:52:39.890Z,33.00
2018-03-24T05:53:13.810Z,36.25
2018-03-24T05:53:47.681Z,38.00
2018-03-24T05:54:21.559Z,39.45
2018-03-24T05:54:55.616Z,34.22
2018-03-24T05:55:29.799Z,34.33
2018-03-24T05:56:03.682Z,35.65
2018-03-24T05:56:37.596Z,36.20
2018-03-24T05:57:11.586Z,36.10
2018-03-24T05:57:45.481Z,37.35
2018-03-24T05:58:19.341Z,38.58
2018-03-24T05:58:53.213Z,39.70
2018-03-24T05:59:27.187Z,33.55
2018-03-24T06:00:01.061Z,37.85
2018-03-24T06:00:34.936Z,35.58
2018-03-24T06:01:08.815Z,37.95
2018-03-24T06:01:42.754Z,39.70
2018-03-24T06:02:16.627Z,35.50
2018-03-24T06:02:50.496Z,33.38
2018-03-24T06:03:24.436Z,37.20
2018-03-24T06:03:58.313Z,39.13
2018-03-24T06:04:32.231Z,40.63
2018-03-24T06:05:06.091Z,34.20
2018-03-24T06:05:40.169Z,34.85
2018-03-24T06:06:14.216Z,35.97
2018-03-24T06:06:48.228Z,36.83
2018-03-24T06:07:22.114Z,34.00
2018-03-24T06:07:55.999Z,38.35
2018-03-24T06:08:30.108Z,36.13
2018-03-24T06:09:04.018Z,35.70
2018-03-24T06:09:37.887Z,37.17
2018-03-24T06:10:11.755Z,37.80
2018-03-24T06:10:45.995Z,35.40
2018-03-24T06:11:19.919Z,36.83
2018-03-24T06:11:53.784Z,37.63
2018-03-24T06:12:27.779Z,38.25
2018-03-24T06:13:01.649Z,39.33
2018-03-24T06:13:35.497Z,40.47
2018-03-24T06:14:09.354Z,38.10
2018-03-24T06:14:43.260Z,36.50
2018-03-24T06:15:17.122Z,36.40
2018-03-24T06:15:50.992Z,35.45
2018-03-24T06:16:24.875Z,35.80
2018-03-24T06:16:58.866Z,37.90
2018-03-24T06:17:32.743Z,38.38
2018-03-24T06:18:06.649Z,41.42
2018-03-24T06:18:40.505Z,39.67
2018-03-24T06:19:14.630Z,36.20
2018-03-24T06:19:48.627Z,36.55
2018-03-24T06:20:22.496Z,35.03
2018-03-24T06:20:56.357Z,37.72
2018-03-24T06:21:30.266Z,35.47
2018-03-24T06:22:04.374Z,34.17
2018-03-24T06:22:38.206Z,37.53
2018-03-24T06:23:12.081Z,36.63
2018-03-24T06:23:45.960Z,35.85
2018-03-24T06:24:19.893Z,37.53
2018-03-24T06:24:53.748Z,34.22
2018-03-24T06:25:27.981Z,32.45
2018-03-24T06:26:01.988Z,37.05
2018-03-24T06:26:35.857Z,39.50
2018-03-24T06:27:09.912Z,36.75
2018-03-24T06:27:43.798Z,36.95
2018-03-24T06:28:17.679Z,44.55
2018-03-24T06:28:51.553Z,36.97
2018-03-24T06:29:25.669Z,38.38
2018-03-24T06:29:59.530Z,41.00
2018-03-24T06:30:36.014Z,36.55
2018-03-24T06:31:28.857Z,34.28
2018-03-24T06:32:05.326Z,34.75
2018-03-24T06:32:39.275Z,34.83
2018-03-24T06:33:13.209Z,37.50
2018-03-24T06:33:47.080Z,38.75
2018-03-24T06:34:21.106Z,36.42
2018-03-24T06:34:54.973Z,34.75
2018-03-24T06:35:28.834Z,37.78
2018-03-24T06:36:13.028Z,32.60
2018-03-24T06:36:46.889Z,33.25
2018-03-24T06:37:20.920Z,38.20
2018-03-24T06:37:54.799Z,37.22
2018-03-24T06:38:28.703Z,32.67
2018-03-24T06:39:02.618Z,37.97
2018-03-24T06:39:36.613Z,40.55
2018-03-24T06:40:10.478Z,34.10
2018-03-24T06:40:44.599Z,37.03
2018-03-24T06:41:18.475Z,35.95
2018-03-24T06:41:52.610Z,34.25
2018-03-24T06:42:26.707Z,34.75
2018-03-24T06:43:00.574Z,35.35
2018-03-24T06:43:34.438Z,34.20
2018-03-24T06:44:08.410Z,36.83
2018-03-24T06:44:42.292Z,33.80
2018-03-24T06:45:16.165Z,38.08
2018-03-24T06:45:50.028Z,38.65
2018-03-24T06:46:23.885Z,37.60
2018-03-24T06:46:57.856Z,35.17
2018-03-24T06:47:32.076Z,34.58
2018-03-24T06:48:06.158Z,34.92
2018-03-24T06:48:40.060Z,37.38
2018-03-24T06:49:13.946Z,33.13
2018-03-24T06:49:47.954Z,34.60
2018-03-24T06:50:21.834Z,35.45
2018-03-24T06:50:55.859Z,33.95
2018-03-24T06:51:29.718Z,37.83
2018-03-24T06:52:03.585Z,36.92
2018-03-24T06:52:37.544Z,33.53
2018-03-24T06:53:11.420Z,36.75
2018-03-24T06:53:45.425Z,37.92
2018-03-24T06:54:19.410Z,34.45
2018-03-24T06:54:53.331Z,36.92
2018-03-24T06:55:27.226Z,38.40
2018-03-24T06:56:01.094Z,35.28
2018-03-24T06:56:35.100Z,39.88
2018-03-24T06:57:09.097Z,36.47
2018-03-24T06:57:42.960Z,40.25
2018-03-24T06:58:16.829Z,37.70
2018-03-24T06:58:50.691Z,36.72
2018-03-24T06:59:24.788Z,34.55
2018-03-24T06:59:58.782Z,34.15
2018-03-24T07:00:32.830Z,35.95
2018-03-24T07:01:06.979Z,33.97
2018-03-24T07:01:40.847Z,37.70
2018-03-24T07:02:14.710Z,40.28
2018-03-24T07:02:48.586Z,37.25
2018-03-24T07:03:22.442Z,38.58
2018-03-24T07:03:56.470Z,39.08
2018-03-24T07:04:30.353Z,36.05
2018-03-24T07:05:04.253Z,35.33
2018-03-24T07:05:38.141Z,34.80
2018-03-24T07:06:12.009Z,36.05
2018-03-24T07:06:45.875Z,30.20
2018-03-24T07:07:19.743Z,37.85
2018-03-24T07:07:53.635Z,36.22
2018-03-24T07:08:27.493Z,33.33
2018-03-24T07:09:01.725Z,41.85
2018-03-24T07:09:35.618Z,35.58
2018-03-24T07:10:09.483Z,32.28
2018-03-24T07:10:43.515Z,33.22
2018-03-24T07:11:17.378Z,37.65
2018-03-24T07:11:51.430Z,35.63
2018-03-24T07:12:25.502Z,37.58
2018-03-24T07:12:59.701Z,43.53
2018-03-24T07:13:33.565Z,35.03
2018-03-24T07:14:07.416Z,38.13
2018-03-24T07:14:41.297Z,34.72
2018-03-24T07:15:15.166Z,37.25
2018-03-24T07:15:49.096Z,35.55
2018-03-24T07:16:22.978Z,39.63
2018-03-24T07:16:56.849Z,30.85
2018-03-24T07:17:30.967Z,36.40
2018-03-24T07:18:05.065Z,35.60
2018-03-24T07:18:39.085Z,35.05